sensor_id;sensor_type;location;lat;lon;timestamp;pressure;altitude;pressure_sealevel;temperature;humidity
13604;BME280;24578;48.264;11.436;2022-07-22T00:02:09;96549.09;;;17.69;100.00
13604;BME280;24578;48.264;11.436;2022-07-22T00:05:10;96538.13;;;17.65;100.00
13604;BME280;24578;48.264;11.436;2022-07-22T00:08:11;96542.00;;;17.61;100.00
13604;BME280;24578;48.264;11.436;2022-07-22T00:11:11;96531.13;;;17.56;100.00
13604;BME280;24578;48.264;11.436;2022-07-22T00:14:12;96536.81;;;17.52;100.00
13604;BME280;24578;48.264;11.436;2022-07-22T00:17:13;96532.03;;;17.47;100.00
13604;BME280;24578;48.264;11.436;2022-07-22T00:20:13;96526.41;;;17.42;100.00
13604;BME280;24578;48.264;11.436;2022-07-22T00:23:14;96520.66;;;17.38;100.00
13604;BME280;24578;48.264;11.436;2022-07-22T00:26:15;96525.34;;;17.34;100.00
13604;BME280;24578;48.264;11.436;2022-07-22T00:29:15;96524.00;;;17.30;100.00
13604;BME280;24578;48.264;11.436;2022-07-22T00:32:16;96518.53;;;17.24;100.00
13604;BME280;24578;48.264;11.436;2022-07-22T00:35:16;96525.84;;;17.20;100.00
13604;BME280;24578;48.264;11.436;2022-07-22T00:38:17;96514.84;;;17.16;100.00
13604;BME280;24578;48.264;11.436;2022-07-22T00:41:18;96513.50;;;17.12;100.00
13604;BME280;24578;48.264;11.436;2022-07-22T00:44:18;96513.09;;;17.07;100.00
13604;BME280;24578;48.264;11.436;2022-07-22T00:47:19;96512.56;;;17.03;100.00
13604;BME280;24578;48.264;11.436;2022-07-22T00:50:20;96517.41;;;16.98;100.00
13604;BME280;24578;48.264;11.436;2022-07-22T00:53:21;96513.53;;;16.93;100.00
13604;BME280;24578;48.264;11.436;2022-07-22T00:56:23;96517.41;;;16.88;100.00
13604;BME280;24578;48.264;11.436;2022-07-22T00:59:24;96514.38;;;16.83;100.00
13604;BME280;24578;48.264;11.436;2022-07-22T01:02:25;96512.22;;;16.79;100.00
13604;BME280;24578;48.264;11.436;2022-07-22T01:05:26;96511.84;;;16.73;100.00
13604;BME280;24578;48.264;11.436;2022-07-22T01:08:26;96515.69;;;16.69;100.00
13604;BME280;24578;48.264;11.436;2022-07-22T01:11:27;96508.94;;;16.67;100.00
13604;BME280;24578;48.264;11.436;2022-07-22T01:14:28;96508.41;;;16.63;100.00
13604;BME280;24578;48.264;11.436;2022-07-22T01:17:28;96501.69;;;16.61;100.00
13604;BME280;24578;48.264;11.436;2022-07-22T01:20:29;96506.38;;;16.57;100.00
13604;BME280;24578;48.264;11.436;2022-07-22T01:23:30;96509.00;;;16.57;100.00
13604;BME280;24578;48.264;11.436;2022-07-22T01:26:31;96508.44;;;16.53;100.00
13604;BME280;24578;48.264;11.436;2022-07-22T01:29:33;96510.50;;;16.50;100.00
13604;BME280;24578;48.264;11.436;2022-07-22T01:32:34;96511.75;;;16.46;100.00
13604;BME280;24578;48.264;11.436;2022-07-22T01:35:36;96514.66;;;16.42;100.00
13604;BME280;24578;48.264;11.436;2022-07-22T01:38:36;96513.41;;;16.37;100.00
13604;BME280;24578;48.264;11.436;2022-07-22T01:41:37;96516.47;;;16.32;100.00
13604;BME280;24578;48.264;11.436;2022-07-22T01:44:38;96509.03;;;16.27;100.00
13604;BME280;24578;48.264;11.436;2022-07-22T01:47:38;96508.34;;;16.25;100.00
13604;BME280;24578;48.264;11.436;2022-07-22T01:50:40;96511.13;;;16.24;100.00
13604;BME280;24578;48.264;11.436;2022-07-22T01:53:40;96505.22;;;16.22;100.00
13604;BME280;24578;48.264;11.436;2022-07-22T01:56:41;96502.88;;;16.19;100.00
13604;BME280;24578;48.264;11.436;2022-07-22T01:59:41;96497.13;;;16.15;100.00
13604;BME280;24578;48.264;11.436;2022-07-22T02:02:42;96505.91;;;16.14;100.00
13604;BME280;24578;48.264;11.436;2022-07-22T02:05:42;96502.75;;;16.10;100.00
13604;BME280;24578;48.264;11.436;2022-07-22T02:08:43;96505.63;;;16.07;100.00
13604;BME280;24578;48.264;11.436;2022-07-22T02:11:44;96507.56;;;16.05;100.00
13604;BME280;24578;48.264;11.436;2022-07-22T02:14:45;96498.34;;;16.01;100.00
13604;BME280;24578;48.264;11.436;2022-07-22T02:17:46;96499.56;;;15.97;100.00
13604;BME280;24578;48.264;11.436;2022-07-22T02:20:47;96500.97;;;15.91;100.00
13604;BME280;24578;48.264;11.436;2022-07-22T02:23:47;96503.03;;;15.88;100.00
13604;BME280;24578;48.264;11.436;2022-07-22T02:26:48;96498.31;;;15.81;100.00
13604;BME280;24578;48.264;11.436;2022-07-22T02:29:49;96496.28;;;15.75;100.00
13604;BME280;24578;48.264;11.436;2022-07-22T02:32:49;96491.47;;;15.71;100.00
13604;BME280;24578;48.264;11.436;2022-07-22T02:35:50;96494.47;;;15.66;100.00
13604;BME280;24578;48.264;11.436;2022-07-22T02:38:50;96499.84;;;15.64;100.00
13604;BME280;24578;48.264;11.436;2022-07-22T02:41:51;96504.34;;;15.62;100.00
13604;BME280;24578;48.264;11.436;2022-07-22T02:44:51;96502.00;;;15.59;100.00
13604;BME280;24578;48.264;11.436;2022-07-22T02:47:54;96494.47;;;15.56;100.00
13604;BME280;24578;48.264;11.436;2022-07-22T02:50:55;96500.78;;;15.53;100.00
13604;BME280;24578;48.264;11.436;2022-07-22T02:53:56;96492.25;;;15.51;100.00
13604;BME280;24578;48.264;11.436;2022-07-22T02:56:56;96495.97;;;15.49;100.00
13604;BME280;24578;48.264;11.436;2022-07-22T02:59:57;96497.19;;;15.45;100.00
13604;BME280;24578;48.264;11.436;2022-07-22T03:02:57;96493.88;;;15.43;100.00
13604;BME280;24578;48.264;11.436;2022-07-22T03:05:58;96488.97;;;15.40;100.00
13604;BME280;24578;48.264;11.436;2022-07-22T03:08:59;96489.22;;;15.36;100.00
13604;BME280;24578;48.264;11.436;2022-07-22T03:11:59;96493.59;;;15.36;100.00
13604;BME280;24578;48.264;11.436;2022-07-22T03:15:00;96499.78;;;15.35;100.00
13604;BME280;24578;48.264;11.436;2022-07-22T03:18:00;96501.56;;;15.34;100.00
13604;BME280;24578;48.264;11.436;2022-07-22T03:21:01;96506.09;;;15.32;100.00
13604;BME280;24578;48.264;11.436;2022-07-22T03:24:02;96504.59;;;15.30;100.00
13604;BME280;24578;48.264;11.436;2022-07-22T03:27:04;96504.72;;;15.28;100.00
13604;BME280;24578;48.264;11.436;2022-07-22T03:30:05;96509.22;;;15.26;100.00
13604;BME280;24578;48.264;11.436;2022-07-22T03:33:06;96504.41;;;15.21;100.00
13604;BME280;24578;48.264;11.436;2022-07-22T03:36:07;96506.06;;;15.22;100.00
13604;BME280;24578;48.264;11.436;2022-07-22T03:39:08;96502.78;;;15.20;100.00
13604;BME280;24578;48.264;11.436;2022-07-22T03:42:08;96496.84;;;15.18;100.00
13604;BME280;24578;48.264;11.436;2022-07-22T03:45:09;96501.13;;;15.19;100.00
13604;BME280;24578;48.264;11.436;2022-07-22T03:48:10;96503.59;;;15.21;100.00
13604;BME280;24578;48.264;11.436;2022-07-22T03:51:10;96505.25;;;15.22;100.00
13604;BME280;24578;48.264;11.436;2022-07-22T03:54:11;96499.09;;;15.23;100.00
13604;BME280;24578;48.264;11.436;2022-07-22T03:57:11;96497.03;;;15.27;100.00
13604;BME280;24578;48.264;11.436;2022-07-22T04:00:12;96504.44;;;15.31;100.00
13604;BME280;24578;48.264;11.436;2022-07-22T04:03:13;96499.66;;;15.36;100.00
13604;BME280;24578;48.264;11.436;2022-07-22T04:06:14;96508.47;;;15.45;100.00
13604;BME280;24578;48.264;11.436;2022-07-22T04:09:14;96496.78;;;15.59;100.00
13604;BME280;24578;48.264;11.436;2022-07-22T04:12:15;96491.44;;;15.80;100.00
13604;BME280;24578;48.264;11.436;2022-07-22T04:15:15;96493.53;;;16.06;100.00
13604;BME280;24578;48.264;11.436;2022-07-22T04:18:16;96492.41;;;16.38;100.00
13604;BME280;24578;48.264;11.436;2022-07-22T04:21:17;96486.25;;;16.67;100.00
13604;BME280;24578;48.264;11.436;2022-07-22T04:24:18;96493.88;;;16.98;100.00
13604;BME280;24578;48.264;11.436;2022-07-22T04:27:18;96492.22;;;17.25;100.00
13604;BME280;24578;48.264;11.436;2022-07-22T04:30:19;96486.81;;;17.55;100.00
13604;BME280;24578;48.264;11.436;2022-07-22T04:33:19;96494.44;;;17.66;100.00
13604;BME280;24578;48.264;11.436;2022-07-22T04:36:20;96487.47;;;17.75;100.00
13604;BME280;24578;48.264;11.436;2022-07-22T04:39:26;96499.44;;;17.95;100.00
13604;BME280;24578;48.264;11.436;2022-07-22T04:42:48;96501.72;;;18.35;100.00
13604;BME280;24578;48.264;11.436;2022-07-22T04:46:30;96499.69;;;18.73;100.00
13604;BME280;24578;48.264;11.436;2022-07-22T04:49:32;96496.53;;;18.96;99.75
13604;BME280;24578;48.264;11.436;2022-07-22T04:52:33;96501.50;;;19.07;97.47
13604;BME280;24578;48.264;11.436;2022-07-22T04:55:33;96494.88;;;19.29;95.43
13604;BME280;24578;48.264;11.436;2022-07-22T04:58:34;96493.09;;;19.55;93.81
13604;BME280;24578;48.264;11.436;2022-07-22T05:01:34;96494.50;;;19.92;93.37
13604;BME280;24578;48.264;11.436;2022-07-22T05:04:36;96502.06;;;20.28;91.26
13604;BME280;24578;48.264;11.436;2022-07-22T05:07:36;96501.69;;;20.56;89.48
13604;BME280;24578;48.264;11.436;2022-07-22T05:10:37;96500.31;;;20.93;87.89
13604;BME280;24578;48.264;11.436;2022-07-22T05:13:38;96506.38;;;21.34;85.63
13604;BME280;24578;48.264;11.436;2022-07-22T05:16:38;96496.38;;;21.60;82.60
13604;BME280;24578;48.264;11.436;2022-07-22T05:19:40;96495.16;;;21.95;80.17
13604;BME280;24578;48.264;11.436;2022-07-22T05:22:40;96491.56;;;22.34;78.62
13604;BME280;24578;48.264;11.436;2022-07-22T05:25:41;96499.72;;;22.77;75.93
13604;BME280;24578;48.264;11.436;2022-07-22T05:28:41;96496.59;;;23.19;74.52
13604;BME280;24578;48.264;11.436;2022-07-22T05:31:42;96482.00;;;23.53;72.63
13604;BME280;24578;48.264;11.436;2022-07-22T05:34:42;96483.41;;;24.14;70.21
13604;BME280;24578;48.264;11.436;2022-07-22T05:37:43;96481.66;;;24.56;68.54
13604;BME280;24578;48.264;11.436;2022-07-22T05:40:43;96480.69;;;24.92;66.39
13604;BME280;24578;48.264;11.436;2022-07-22T05:43:44;96478.38;;;25.18;65.04
13604;BME280;24578;48.264;11.436;2022-07-22T05:46:46;96474.31;;;25.91;63.91
13604;BME280;24578;48.264;11.436;2022-07-22T05:49:48;96469.63;;;26.47;59.86
13604;BME280;24578;48.264;11.436;2022-07-22T05:52:48;96477.66;;;27.05;57.83
13604;BME280;24578;48.264;11.436;2022-07-22T05:55:50;96477.69;;;27.51;56.81
13604;BME280;24578;48.264;11.436;2022-07-22T05:58:50;96471.53;;;27.89;55.18
13604;BME280;24578;48.264;11.436;2022-07-22T06:01:52;96462.03;;;28.32;52.97
13604;BME280;24578;48.264;11.436;2022-07-22T06:04:52;96463.41;;;28.97;52.74
13604;BME280;24578;48.264;11.436;2022-07-22T06:07:53;96459.63;;;29.24;51.48
13604;BME280;24578;48.264;11.436;2022-07-22T06:11:01;96449.84;;;29.97;50.36
13604;BME280;24578;48.264;11.436;2022-07-22T06:14:04;96466.72;;;30.57;48.09
13604;BME280;24578;48.264;11.436;2022-07-22T06:17:15;96459.81;;;30.97;46.90
13604;BME280;24578;48.264;11.436;2022-07-22T06:20:25;96458.50;;;31.52;45.46
13604;BME280;24578;48.264;11.436;2022-07-22T06:23:35;96455.00;;;31.81;43.15
13604;BME280;24578;48.264;11.436;2022-07-22T06:26:36;96452.00;;;31.94;42.91
13604;BME280;24578;48.264;11.436;2022-07-22T06:29:37;96455.47;;;32.12;41.83
13604;BME280;24578;48.264;11.436;2022-07-22T06:32:37;96455.34;;;32.36;40.57
13604;BME280;24578;48.264;11.436;2022-07-22T06:35:39;96452.75;;;32.80;39.45
13604;BME280;24578;48.264;11.436;2022-07-22T06:38:40;96449.59;;;33.05;39.03
13604;BME280;24578;48.264;11.436;2022-07-22T06:41:41;96447.09;;;33.43;38.05
13604;BME280;24578;48.264;11.436;2022-07-22T06:44:41;96443.00;;;33.63;37.69
13604;BME280;24578;48.264;11.436;2022-07-22T06:47:42;96437.25;;;34.14;36.21
13604;BME280;24578;48.264;11.436;2022-07-22T06:50:43;96438.59;;;34.49;35.64
13604;BME280;24578;48.264;11.436;2022-07-22T06:53:43;96441.41;;;34.75;33.96
13604;BME280;24578;48.264;11.436;2022-07-22T06:56:44;96444.06;;;34.70;33.68
13604;BME280;24578;48.264;11.436;2022-07-22T06:59:44;96444.50;;;34.46;34.79
13604;BME280;24578;48.264;11.436;2022-07-22T07:02:45;96450.56;;;34.84;33.68
13604;BME280;24578;48.264;11.436;2022-07-22T07:05:45;96448.38;;;35.40;33.27
13604;BME280;24578;48.264;11.436;2022-07-22T07:08:46;96437.38;;;35.46;33.51
13604;BME280;24578;48.264;11.436;2022-07-22T07:11:46;96442.84;;;36.03;31.96
13604;BME280;24578;48.264;11.436;2022-07-22T07:14:47;96433.13;;;36.28;30.99
13604;BME280;24578;48.264;11.436;2022-07-22T07:17:47;96432.81;;;36.55;31.07
13604;BME280;24578;48.264;11.436;2022-07-22T07:20:48;96428.25;;;36.51;31.16
13604;BME280;24578;48.264;11.436;2022-07-22T07:23:48;96427.66;;;36.69;31.29
13604;BME280;24578;48.264;11.436;2022-07-22T07:26:49;96431.00;;;37.16;30.77
13604;BME280;24578;48.264;11.436;2022-07-22T07:29:50;96430.22;;;37.06;29.45
13604;BME280;24578;48.264;11.436;2022-07-22T07:32:50;96430.13;;;36.45;30.29
13604;BME280;24578;48.264;11.436;2022-07-22T07:35:51;96426.47;;;37.01;30.42
13604;BME280;24578;48.264;11.436;2022-07-22T07:38:51;96421.28;;;37.15;28.99
13604;BME280;24578;48.264;11.436;2022-07-22T07:41:52;96426.59;;;37.76;29.00
13604;BME280;24578;48.264;11.436;2022-07-22T07:44:53;96428.94;;;38.22;27.82
13604;BME280;24578;48.264;11.436;2022-07-22T07:47:53;96420.50;;;37.60;28.33
13604;BME280;24578;48.264;11.436;2022-07-22T07:50:54;96409.66;;;38.00;28.02
13604;BME280;24578;48.264;11.436;2022-07-22T07:53:55;96415.50;;;38.42;27.04
13604;BME280;24578;48.264;11.436;2022-07-22T07:56:55;96418.25;;;39.09;27.35
13604;BME280;24578;48.264;11.436;2022-07-22T07:59:56;96409.47;;;39.18;25.49
13604;BME280;24578;48.264;11.436;2022-07-22T08:02:56;96411.59;;;39.21;24.65
13604;BME280;24578;48.264;11.436;2022-07-22T08:05:57;96411.00;;;39.24;24.88
13604;BME280;24578;48.264;11.436;2022-07-22T08:09:00;96400.44;;;38.84;25.42
13604;BME280;24578;48.264;11.436;2022-07-22T08:12:00;96402.81;;;39.67;24.55
13604;BME280;24578;48.264;11.436;2022-07-22T08:15:01;96407.72;;;39.65;24.47
13604;BME280;24578;48.264;11.436;2022-07-22T08:18:02;96400.69;;;40.30;23.93
13604;BME280;24578;48.264;11.436;2022-07-22T08:21:03;96412.56;;;40.01;23.96
13604;BME280;24578;48.264;11.436;2022-07-22T08:24:04;96402.25;;;40.03;24.13
13604;BME280;24578;48.264;11.436;2022-07-22T08:27:04;96397.94;;;40.77;22.75
13604;BME280;24578;48.264;11.436;2022-07-22T08:30:06;96404.72;;;41.03;22.50
13604;BME280;24578;48.264;11.436;2022-07-22T08:33:08;96392.25;;;41.02;23.56
13604;BME280;24578;48.264;11.436;2022-07-22T08:36:09;96397.78;;;40.83;22.56
13604;BME280;24578;48.264;11.436;2022-07-22T08:39:10;96391.34;;;40.92;22.72
13604;BME280;24578;48.264;11.436;2022-07-22T08:42:10;96393.09;;;40.46;23.31
13604;BME280;24578;48.264;11.436;2022-07-22T08:45:11;96382.66;;;40.40;23.28
13604;BME280;24578;48.264;11.436;2022-07-22T08:48:12;96387.53;;;40.93;23.14
13604;BME280;24578;48.264;11.436;2022-07-22T08:51:12;96380.69;;;41.10;22.45
13604;BME280;24578;48.264;11.436;2022-07-22T08:54:13;96378.59;;;41.07;22.21
13604;BME280;24578;48.264;11.436;2022-07-22T08:57:13;96372.47;;;40.59;22.95
13604;BME280;24578;48.264;11.436;2022-07-22T09:00:20;96365.06;;;40.79;23.55
13604;BME280;24578;48.264;11.436;2022-07-22T09:03:23;96368.47;;;41.35;22.03
13604;BME280;24578;48.264;11.436;2022-07-22T09:06:27;96364.34;;;41.92;21.27
13604;BME280;24578;48.264;11.436;2022-07-22T09:09:34;96363.28;;;41.25;21.79
13604;BME280;24578;48.264;11.436;2022-07-22T09:12:53;96365.06;;;41.30;21.62
13604;BME280;24578;48.264;11.436;2022-07-22T09:15:56;96351.56;;;42.15;20.88
13604;BME280;24578;48.264;11.436;2022-07-22T09:18:56;96350.94;;;42.19;20.85
13604;BME280;24578;48.264;11.436;2022-07-22T09:21:57;96346.19;;;42.33;20.75
13604;BME280;24578;48.264;11.436;2022-07-22T09:24:57;96350.00;;;42.32;20.17
13604;BME280;24578;48.264;11.436;2022-07-22T09:31:23;96354.56;;;41.14;20.92
13604;BME280;24578;48.264;11.436;2022-07-22T09:34:29;96346.78;;;41.21;21.23
13604;BME280;24578;48.264;11.436;2022-07-22T09:37:31;96343.03;;;41.08;20.33
13604;BME280;24578;48.264;11.436;2022-07-22T09:40:34;96341.88;;;41.46;20.00
13604;BME280;24578;48.264;11.436;2022-07-22T09:43:36;96338.13;;;41.19;19.76
13604;BME280;24578;48.264;11.436;2022-07-22T09:46:37;96333.06;;;41.63;20.10
13604;BME280;24578;48.264;11.436;2022-07-22T09:49:38;96325.81;;;42.13;19.75
13604;BME280;24578;48.264;11.436;2022-07-22T09:52:43;96320.28;;;42.27;19.31
13604;BME280;24578;48.264;11.436;2022-07-22T09:55:43;96326.09;;;41.12;20.06
13604;BME280;24578;48.264;11.436;2022-07-22T09:58:44;96323.78;;;40.82;20.39
13604;BME280;24578;48.264;11.436;2022-07-22T10:01:47;96317.84;;;41.85;20.38
13604;BME280;24578;48.264;11.436;2022-07-22T10:04:51;96322.56;;;42.02;19.00
13604;BME280;24578;48.264;11.436;2022-07-22T10:07:54;96310.25;;;40.54;19.74
13604;BME280;24578;48.264;11.436;2022-07-22T10:11:00;96315.97;;;40.25;20.51
13604;BME280;24578;48.264;11.436;2022-07-22T10:14:02;96313.69;;;41.11;19.56
13604;BME280;24578;48.264;11.436;2022-07-22T10:17:03;96313.31;;;41.26;19.62
13604;BME280;24578;48.264;11.436;2022-07-22T10:20:06;96303.44;;;40.93;20.38
13604;BME280;24578;48.264;11.436;2022-07-22T10:23:10;96302.19;;;40.77;20.83
13604;BME280;24578;48.264;11.436;2022-07-22T10:26:10;96301.63;;;40.38;21.33
13604;BME280;24578;48.264;11.436;2022-07-22T10:29:46;96300.69;;;39.87;21.11
13604;BME280;24578;48.264;11.436;2022-07-22T10:36:10;96287.75;;;40.68;20.28
13604;BME280;24578;48.264;11.436;2022-07-22T10:39:13;96291.47;;;39.88;21.18
13604;BME280;24578;48.264;11.436;2022-07-22T10:42:14;96287.84;;;39.93;21.51
13604;BME280;24578;48.264;11.436;2022-07-22T10:45:17;96299.78;;;39.44;21.28
13604;BME280;24578;48.264;11.436;2022-07-22T10:48:43;96293.50;;;38.92;21.50
13604;BME280;24578;48.264;11.436;2022-07-22T10:55:20;96294.59;;;38.72;22.27
13604;BME280;24578;48.264;11.436;2022-07-22T10:58:41;96287.66;;;39.04;22.47
13604;BME280;24578;48.264;11.436;2022-07-22T11:01:47;96287.34;;;39.43;22.31
13604;BME280;24578;48.264;11.436;2022-07-22T11:04:48;96282.16;;;39.28;21.80
13604;BME280;24578;48.264;11.436;2022-07-22T11:07:49;96273.44;;;39.64;22.01
13604;BME280;24578;48.264;11.436;2022-07-22T11:10:50;96274.78;;;39.81;21.89
13604;BME280;24578;48.264;11.436;2022-07-22T11:13:51;96277.31;;;39.25;21.45
13604;BME280;24578;48.264;11.436;2022-07-22T11:16:56;96274.69;;;38.62;23.49
13604;BME280;24578;48.264;11.436;2022-07-22T11:19:57;96269.88;;;38.59;22.66
13604;BME280;24578;48.264;11.436;2022-07-22T11:22:59;96264.66;;;38.87;22.71
13604;BME280;24578;48.264;11.436;2022-07-22T11:26:00;96262.75;;;38.88;22.39
13604;BME280;24578;48.264;11.436;2022-07-22T11:29:01;96261.13;;;39.06;21.69
13604;BME280;24578;48.264;11.436;2022-07-22T11:32:04;96255.66;;;38.92;21.76
13604;BME280;24578;48.264;11.436;2022-07-22T11:35:11;96249.09;;;38.98;21.99
13604;BME280;24578;48.264;11.436;2022-07-22T11:38:12;96242.94;;;39.44;22.90
13604;BME280;24578;48.264;11.436;2022-07-22T11:41:15;96240.81;;;39.55;21.36
13604;BME280;24578;48.264;11.436;2022-07-22T11:44:20;96239.59;;;39.48;21.81
13604;BME280;24578;48.264;11.436;2022-07-22T11:47:21;96230.38;;;39.35;22.04
13604;BME280;24578;48.264;11.436;2022-07-22T11:50:31;96223.69;;;39.46;21.81
13604;BME280;24578;48.264;11.436;2022-07-22T11:53:33;96232.00;;;39.50;21.09
13604;BME280;24578;48.264;11.436;2022-07-22T11:56:35;96214.84;;;39.07;22.20
13604;BME280;24578;48.264;11.436;2022-07-22T11:59:35;96218.81;;;38.96;21.47
13604;BME280;24578;48.264;11.436;2022-07-22T12:02:36;96215.41;;;38.90;21.43
13604;BME280;24578;48.264;11.436;2022-07-22T12:05:37;96218.47;;;38.83;21.70
13604;BME280;24578;48.264;11.436;2022-07-22T12:08:46;96217.88;;;38.24;22.26
13604;BME280;24578;48.264;11.436;2022-07-22T12:11:49;96211.78;;;37.94;22.73
13604;BME280;24578;48.264;11.436;2022-07-22T12:14:57;96205.38;;;37.60;22.83
13604;BME280;24578;48.264;11.436;2022-07-22T12:18:18;96209.00;;;37.75;23.54
13604;BME280;24578;48.264;11.436;2022-07-22T12:21:20;96207.06;;;37.81;23.03
13604;BME280;24578;48.264;11.436;2022-07-22T12:24:43;96190.50;;;38.31;22.25
13604;BME280;24578;48.264;11.436;2022-07-22T12:27:59;96196.94;;;38.35;22.44
13604;BME280;24578;48.264;11.436;2022-07-22T12:31:00;96196.06;;;38.20;22.33
13604;BME280;24578;48.264;11.436;2022-07-22T12:34:00;96194.50;;;38.38;22.41
13604;BME280;24578;48.264;11.436;2022-07-22T12:40:22;96187.34;;;38.23;22.39
13604;BME280;24578;48.264;11.436;2022-07-22T12:43:24;96180.91;;;38.44;22.03
13604;BME280;24578;48.264;11.436;2022-07-22T12:46:25;96178.03;;;38.73;21.73
13604;BME280;24578;48.264;11.436;2022-07-22T12:49:26;96170.53;;;38.89;22.27
13604;BME280;24578;48.264;11.436;2022-07-22T12:52:26;96178.19;;;38.63;21.46
13604;BME280;24578;48.264;11.436;2022-07-22T12:55:27;96169.53;;;38.80;22.57
13604;BME280;24578;48.264;11.436;2022-07-22T12:58:29;96179.13;;;38.72;20.65
13604;BME280;24578;48.264;11.436;2022-07-22T13:01:30;96175.81;;;38.18;21.55
13604;BME280;24578;48.264;11.436;2022-07-22T13:04:30;96175.19;;;37.58;22.83
13604;BME280;24578;48.264;11.436;2022-07-22T13:07:31;96164.81;;;37.41;23.01
13604;BME280;24578;48.264;11.436;2022-07-22T13:10:32;96172.09;;;37.41;22.72
13604;BME280;24578;48.264;11.436;2022-07-22T13:13:32;96170.00;;;37.62;23.17
13604;BME280;24578;48.264;11.436;2022-07-22T13:16:33;96165.00;;;37.99;22.86
13604;BME280;24578;48.264;11.436;2022-07-22T13:19:34;96157.28;;;38.11;23.32
13604;BME280;24578;48.264;11.436;2022-07-22T13:22:35;96167.56;;;38.09;23.07
13604;BME280;24578;48.264;11.436;2022-07-22T13:25:36;96157.63;;;38.23;22.46
13604;BME280;24578;48.264;11.436;2022-07-22T13:28:39;96153.75;;;37.91;23.32
13604;BME280;24578;48.264;11.436;2022-07-22T13:31:40;96139.97;;;37.93;22.22
13604;BME280;24578;48.264;11.436;2022-07-22T13:34:40;96149.66;;;37.94;22.57
13604;BME280;24578;48.264;11.436;2022-07-22T13:37:42;96143.75;;;38.11;22.00
13604;BME280;24578;48.264;11.436;2022-07-22T13:40:44;96139.41;;;37.47;23.05
13604;BME280;24578;48.264;11.436;2022-07-22T13:43:51;96128.28;;;37.98;23.28
13604;BME280;24578;48.264;11.436;2022-07-22T13:46:52;96120.69;;;38.19;22.55
13604;BME280;24578;48.264;11.436;2022-07-22T13:49:55;96118.00;;;38.19;22.96
13604;BME280;24578;48.264;11.436;2022-07-22T13:52:56;96121.88;;;38.32;22.22
13604;BME280;24578;48.264;11.436;2022-07-22T13:55:56;96120.56;;;38.29;22.31
13604;BME280;24578;48.264;11.436;2022-07-22T13:58:58;96118.34;;;38.12;21.58
13604;BME280;24578;48.264;11.436;2022-07-22T14:02:00;96128.38;;;37.68;22.61
13604;BME280;24578;48.264;11.436;2022-07-22T14:05:01;96118.50;;;37.29;23.23
13604;BME280;24578;48.264;11.436;2022-07-22T14:08:02;96126.47;;;37.15;22.93
13604;BME280;24578;48.264;11.436;2022-07-22T14:11:03;96115.59;;;36.96;23.09
13604;BME280;24578;48.264;11.436;2022-07-22T14:14:04;96109.13;;;36.97;23.99
13604;BME280;24578;48.264;11.436;2022-07-22T14:17:06;96113.38;;;37.03;23.83
13604;BME280;24578;48.264;11.436;2022-07-22T14:20:07;96110.53;;;37.18;23.06
13604;BME280;24578;48.264;11.436;2022-07-22T14:23:08;96115.03;;;36.99;23.96
13604;BME280;24578;48.264;11.436;2022-07-22T14:26:11;96113.50;;;37.17;23.74
13604;BME280;24578;48.264;11.436;2022-07-22T14:29:12;96110.59;;;37.38;23.38
13604;BME280;24578;48.264;11.436;2022-07-22T14:32:12;96117.84;;;36.43;24.43
13604;BME280;24578;48.264;11.436;2022-07-22T14:35:13;96121.06;;;35.25;25.12
13604;BME280;24578;48.264;11.436;2022-07-22T14:38:13;96115.72;;;34.63;26.15
13604;BME280;24578;48.264;11.436;2022-07-22T14:41:14;96114.00;;;34.20;26.99
13604;BME280;24578;48.264;11.436;2022-07-22T14:44:14;96112.63;;;34.02;27.05
13604;BME280;24578;48.264;11.436;2022-07-22T14:47:15;96119.47;;;33.72;27.91
13604;BME280;24578;48.264;11.436;2022-07-22T14:50:15;96121.28;;;33.56;27.21
13604;BME280;24578;48.264;11.436;2022-07-22T14:53:16;96115.03;;;33.40;27.71
13604;BME280;24578;48.264;11.436;2022-07-22T14:56:17;96114.66;;;33.21;28.71
13604;BME280;24578;48.264;11.436;2022-07-22T14:59:18;96113.78;;;33.10;29.17
13604;BME280;24578;48.264;11.436;2022-07-22T15:02:18;96113.44;;;33.01;28.58
13604;BME280;24578;48.264;11.436;2022-07-22T15:05:20;96111.28;;;32.98;28.63
13604;BME280;24578;48.264;11.436;2022-07-22T15:08:21;96108.03;;;32.91;29.56
13604;BME280;24578;48.264;11.436;2022-07-22T15:11:21;96107.69;;;32.82;29.13
13604;BME280;24578;48.264;11.436;2022-07-22T15:14:22;96104.75;;;32.56;30.04
13604;BME280;24578;48.264;11.436;2022-07-22T15:17:22;96108.06;;;32.36;29.62
13604;BME280;24578;48.264;11.436;2022-07-22T15:20:23;96105.59;;;32.29;30.14
13604;BME280;24578;48.264;11.436;2022-07-22T15:23:24;96109.50;;;32.22;30.20
13604;BME280;24578;48.264;11.436;2022-07-22T15:26:31;96101.25;;;32.23;30.43
13604;BME280;24578;48.264;11.436;2022-07-22T15:29:32;96097.16;;;32.15;31.13
13604;BME280;24578;48.264;11.436;2022-07-22T15:32:32;96101.59;;;32.04;30.61
13604;BME280;24578;48.264;11.436;2022-07-22T15:35:33;96092.16;;;31.97;31.83
13604;BME280;24578;48.264;11.436;2022-07-22T15:38:34;96088.97;;;32.00;31.23
13604;BME280;24578;48.264;11.436;2022-07-22T15:41:35;96085.41;;;31.94;31.85
13604;BME280;24578;48.264;11.436;2022-07-22T15:44:36;96083.44;;;31.84;32.17
13604;BME280;24578;48.264;11.436;2022-07-22T15:47:37;96084.31;;;31.68;31.99
13604;BME280;24578;48.264;11.436;2022-07-22T15:50:37;96073.53;;;31.63;31.28
13604;BME280;24578;48.264;11.436;2022-07-22T15:53:38;96072.00;;;31.67;31.62
13604;BME280;24578;48.264;11.436;2022-07-22T15:56:38;96078.81;;;31.57;31.30
13604;BME280;24578;48.264;11.436;2022-07-22T15:59:39;96067.00;;;31.53;31.69
13604;BME280;24578;48.264;11.436;2022-07-22T16:02:41;96070.56;;;31.37;32.17